Time;durP1;ratioP1;P1;durP2;ratioP2;P2;SDS_P1;SDS_P2;PMS_P1;PMS_P2;Temp;Humidity;BMP_temperature;BMP_pressure;BME280_temperature;BME280_humidity;BME280_pressure;Samples;Min_cycle;Max_cycle;Signal;HPM_P1;HPM_P2
2021/12/08 00:01:03;;;;;;;31.70;29.70;;;;;;;;;;5094335;28;20228;-78
2021/12/08 00:03:30;;;;;;;32.07;30.07;;;;;;;;;;5094361;28;20220;-77
2021/12/08 00:05:57;;;;;;;30.30;28.30;;;;;;;;;;5093990;28;20691;-77
2021/12/08 00:08:27;;;;;;;32.63;30.43;;;;;;;;;;5094193;28;20225;-79
2021/12/08 00:13:36;;;;;;;31.50;29.50;;;;;;;;;;5093767;28;20185;-79
2021/12/08 00:16:05;;;;;;;31.97;29.97;;;;;;;;;;5093772;28;20574;-79
2021/12/08 00:18:33;;;;;;;31.60;29.70;;;;;;;;;;5093706;28;20265;-76
2021/12/08 00:21:01;;;;;;;27.90;26.20;;;;;;;;;;5093599;28;20193;-77
2021/12/08 00:23:28;;;;;;;27.30;25.60;;;;;;;;;;5094000;28;20281;-78
2021/12/08 00:25:55;;;;;;;30.10;28.40;;;;;;;;;;5093764;28;20346;-77
2021/12/08 00:28:23;;;;;;;29.30;27.50;;;;;;;;;;5093786;28;20247;-76
2021/12/08 00:30:50;;;;;;;29.50;27.70;;;;;;;;;;5093301;28;20577;-77
2021/12/08 00:33:19;;;;;;;31.47;29.57;;;;;;;;;;5093676;28;20286;-78
2021/12/08 00:35:48;;;;;;;32.67;30.67;;;;;;;;;;5093649;28;20373;-76
2021/12/08 00:38:17;;;;;;;31.97;29.97;;;;;;;;;;5093180;28;20313;-78
2021/12/08 00:40:44;;;;;;;31.23;29.23;;;;;;;;;;5093550;28;20190;-76
2021/12/08 00:43:11;;;;;;;30.13;28.13;;;;;;;;;;5093067;28;20573;-77
2021/12/08 00:45:37;;;;;;;34.90;32.70;;;;;;;;;;5093483;28;20194;-78
2021/12/08 00:48:05;;;;;;;30.57;28.63;;;;;;;;;;5093123;28;20237;-76
2021/12/08 00:50:34;;;;;;;29.10;27.20;;;;;;;;;;5093060;28;20194;-76
2021/12/08 00:53:02;;;;;;;26.77;25.03;;;;;;;;;;5093102;28;20224;-76
2021/12/08 00:55:29;;;;;;;30.77;28.87;;;;;;;;;;5093236;28;20277;-75
2021/12/08 00:57:55;;;;;;;31.33;29.33;;;;;;;;;;5093208;28;20260;-76
2021/12/08 01:00:27;;;;;;;29.73;27.73;;;;;;;;;;5093452;28;20277;-77
2021/12/08 01:02:54;;;;;;;30.03;28.13;;;;;;;;;;5093224;28;20190;-76
2021/12/08 01:05:22;;;;;;;30.47;28.57;;;;;;;;;;5092937;28;20727;-77
2021/12/08 01:07:50;;;;;;;31.47;29.50;;;;;;;;;;5092702;28;20709;-76
2021/12/08 01:10:21;;;;;;;29.73;27.83;;;;;;;;;;5093331;28;20228;-78
2021/12/08 01:12:47;;;;;;;29.67;27.77;;;;;;;;;;5092617;28;20673;-77
2021/12/08 01:15:14;;;;;;;29.77;27.87;;;;;;;;;;5092663;28;20201;-77
2021/12/08 01:17:41;;;;;;;29.13;27.23;;;;;;;;;;5093043;28;20211;-76
2021/12/08 01:20:10;;;;;;;28.67;26.87;;;;;;;;;;5092774;28;20190;-77
2021/12/08 01:22:37;;;;;;;28.63;26.83;;;;;;;;;;5092837;28;20247;-78
2021/12/08 01:25:06;;;;;;;26.53;24.93;;;;;;;;;;5092767;28;20197;-76
2021/12/08 01:27:33;;;;;;;30.67;28.60;;;;;;;;;;5092728;28;20642;-76
2021/12/08 01:30:00;;;;;;;27.10;25.20;;;;;;;;;;5092242;28;20779;-78
2021/12/08 01:32:27;;;;;;;27.80;25.70;;;;;;;;;;5092642;28;20229;-77
2021/12/08 01:34:54;;;;;;;28.83;27.03;;;;;;;;;;5092760;28;20235;-76
2021/12/08 01:37:20;;;;;;;29.90;27.90;;;;;;;;;;5092590;28;20250;-77
2021/12/08 01:39:47;;;;;;;31.57;29.60;;;;;;;;;;5092174;28;20236;-76
2021/12/08 01:42:24;;;;;;;26.87;25.17;;;;;;;;;;5092808;28;20198;-78
2021/12/08 01:47:34;;;;;;;31.90;30.07;;;;;;;;;;5092868;28;20231;-76
2021/12/08 01:50:01;;;;;;;29.23;27.47;;;;;;;;;;5092371;28;20244;-78
2021/12/08 01:52:28;;;;;;;26.43;24.83;;;;;;;;;;5092085;28;20194;-76
2021/12/08 01:54:55;;;;;;;28.07;26.30;;;;;;;;;;5091861;28;20273;-77
2021/12/08 01:57:23;;;;;;;25.73;24.00;;;;;;;;;;5092163;28;20230;-78
2021/12/08 01:59:50;;;;;;;26.73;25.13;;;;;;;;;;5092276;28;20225;-78
2021/12/08 02:02:16;;;;;;;28.07;26.37;;;;;;;;;;5092195;28;20198;-79
2021/12/08 02:04:43;;;;;;;29.97;28.27;;;;;;;;;;5092266;28;20273;-76
2021/12/08 02:07:10;;;;;;;25.03;23.53;;;;;;;;;;5092057;28;20225;-77
2021/12/08 02:09:37;;;;;;;25.40;23.73;;;;;;;;;;5092010;28;20247;-79
2021/12/08 02:12:04;;;;;;;30.80;28.73;;;;;;;;;;5091943;28;20255;-76
2021/12/08 02:14:34;;;;;;;28.83;26.93;;;;;;;;;;5091916;28;20190;-76
2021/12/08 02:17:01;;;;;;;27.40;25.70;;;;;;;;;;5091855;28;20194;-76
2021/12/08 02:19:28;;;;;;;28.13;26.43;;;;;;;;;;5092122;28;20308;-77
2021/12/08 02:21:56;;;;;;;29.23;27.27;;;;;;;;;;5091956;28;20289;-80
2021/12/08 02:24:23;;;;;;;28.77;26.90;;;;;;;;;;5091853;28;20243;-76
2021/12/08 02:26:51;;;;;;;27.97;26.17;;;;;;;;;;5091836;28;20642;-77
2021/12/08 02:29:23;;;;;;;30.63;28.73;;;;;;;;;;5092008;28;20233;-77
2021/12/08 02:31:56;;;;;;;31.40;29.47;;;;;;;;;;5092166;28;20189;-77
2021/12/08 02:48:05;;;;;;;30.90;28.30;;;;;;;;;;5092020;28;20181;-78
2021/12/08 02:50:34;;;;;;;27.53;25.60;;;;;;;;;;5091575;28;20748;-78
2021/12/08 02:53:05;;;;;;;26.57;24.87;;;;;;;;;;5091958;28;20194;-77
2021/12/08 02:55:31;;;;;;;25.77;24.23;;;;;;;;;;5091910;28;20276;-77
2021/12/08 02:58:00;;;;;;;29.97;27.77;;;;;;;;;;5091474;28;20288;-76
2021/12/08 03:00:28;;;;;;;25.57;23.57;;;;;;;;;;5091869;28;20209;-79
2021/12/08 03:02:56;;;;;;;29.93;28.20;;;;;;;;;;5091485;28;20225;-77
2021/12/08 03:05:24;;;;;;;26.17;24.67;;;;;;;;;;5091809;28;20277;-76
2021/12/08 03:07:51;;;;;;;27.10;25.17;;;;;;;;;;5094555;28;20194;-75
2021/12/08 03:10:20;;;;;;;25.60;24.10;;;;;;;;;;5095300;28;20240;-77
2021/12/08 03:12:47;;;;;;;27.03;25.27;;;;;;;;;;5095246;28;20198;-75
2021/12/08 03:15:15;;;;;;;26.97;25.47;;;;;;;;;;5094903;28;20664;-77
2021/12/08 03:17:42;;;;;;;27.60;25.90;;;;;;;;;;5095181;28;20236;-76
2021/12/08 03:20:11;;;;;;;30.17;27.67;;;;;;;;;;5095070;28;20313;-77
2021/12/08 03:22:43;;;;;;;28.70;26.90;;;;;;;;;;5095643;28;20619;-75
2021/12/08 03:25:13;;;;;;;29.37;27.33;;;;;;;;;;5095088;28;20189;-76
2021/12/08 03:27:47;;;;;;;29.77;27.90;;;;;;;;;;5095109;28;20189;-76
2021/12/08 03:30:18;;;;;;;25.87;24.37;;;;;;;;;;5094636;28;20268;-78
2021/12/08 03:32:45;;;;;;;27.33;25.63;;;;;;;;;;5094950;28;20234;-76
2021/12/08 03:35:13;;;;;;;26.03;24.43;;;;;;;;;;5094879;28;20254;-75
2021/12/08 03:37:41;;;;;;;28.60;26.93;;;;;;;;;;5094523;28;20220;-76
2021/12/08 03:40:10;;;;;;;27.90;26.23;;;;;;;;;;5094399;28;20711;-76
2021/12/08 03:42:38;;;;;;;28.80;26.90;;;;;;;;;;5094741;28;20221;-76
2021/12/08 03:45:09;;;;;;;29.37;27.17;;;;;;;;;;5094354;28;20197;-76
2021/12/08 03:47:38;;;;;;;31.90;29.57;;;;;;;;;;5094453;28;20190;-77
2021/12/08 03:50:06;;;;;;;25.40;23.70;;;;;;;;;;5094308;28;20205;-75
2021/12/08 03:52:33;;;;;;;23.90;22.60;;;;;;;;;;5094511;28;20282;-76
2021/12/08 03:54:59;;;;;;;28.13;26.30;;;;;;;;;;5094568;28;20189;-76
2021/12/08 03:57:26;;;;;;;27.53;25.03;;;;;;;;;;5094126;28;20541;-78
2021/12/08 03:59:53;;;;;;;28.30;26.47;;;;;;;;;;5094377;28;20317;-77
2021/12/08 04:02:21;;;;;;;29.57;27.33;;;;;;;;;;5094400;28;20234;-76
2021/12/08 04:04:50;;;;;;;28.60;27.10;;;;;;;;;;5094221;28;20591;-75
2021/12/08 04:07:18;;;;;;;23.50;22.00;;;;;;;;;;5094267;28;20233;-76
2021/12/08 04:09:47;;;;;;;27.23;25.40;;;;;;;;;;5093825;28;20201;-76
2021/12/08 04:12:16;;;;;;;23.47;22.17;;;;;;;;;;5094167;28;20202;-76
2021/12/08 04:14:44;;;;;;;25.53;24.03;;;;;;;;;;5094053;28;20200;-78
2021/12/08 04:17:13;;;;;;;25.60;24.13;;;;;;;;;;5093299;28;20194;-75
2021/12/08 04:19:42;;;;;;;26.73;24.93;;;;;;;;;;5093866;28;20260;-76
2021/12/08 04:22:11;;;;;;;24.60;23.00;;;;;;;;;;5093884;28;20236;-76
2021/12/08 04:24:37;;;;;;;24.67;23.17;;;;;;;;;;5093873;28;20205;-76
2021/12/08 04:27:06;;;;;;;25.67;23.83;;;;;;;;;;5093823;28;20278;-76
2021/12/08 04:29:34;;;;;;;31.00;28.67;;;;;;;;;;5093424;28;20230;-76
2021/12/08 04:32:02;;;;;;;30.60;28.70;;;;;;;;;;5093754;28;20263;-75
2021/12/08 04:34:30;;;;;;;26.07;24.37;;;;;;;;;;5093432;28;20673;-76
2021/12/08 04:37:02;;;;;;;29.83;27.50;;;;;;;;;;5093922;28;20232;-77
2021/12/08 04:39:35;;;;;;;27.60;26.03;;;;;;;;;;5093829;28;20218;-79
2021/12/08 04:42:07;;;;;;;24.93;23.43;;;;;;;;;;5093371;28;20193;-76
2021/12/08 04:44:40;;;;;;;28.73;26.73;;;;;;;;;;5093530;28;20190;-75
2021/12/08 04:52:48;;;;;;;24.53;23.23;;;;;;;;;;5093524;28;20307;-76
2021/12/08 05:01:12;;;;;;;27.50;25.73;;;;;;;;;;5093256;28;20586;-75
2021/12/08 05:03:50;;;;;;;26.23;24.73;;;;;;;;;;5093189;28;20185;-76
2021/12/08 05:06:23;;;;;;;26.03;24.63;;;;;;;;;;5093198;28;20618;-76
2021/12/08 05:08:52;;;;;;;27.37;25.77;;;;;;;;;;5093046;28;20189;-74
2021/12/08 05:11:21;;;;;;;28.03;26.37;;;;;;;;;;5092750;28;20200;-78
2021/12/08 05:13:48;;;;;;;28.57;26.37;;;;;;;;;;5092979;28;20295;-77
2021/12/08 05:16:15;;;;;;;30.63;28.40;;;;;;;;;;5092619;28;20190;-76
2021/12/08 05:18:44;;;;;;;27.47;25.67;;;;;;;;;;5092831;28;20193;-76
2021/12/08 05:21:12;;;;;;;26.03;24.47;;;;;;;;;;5092916;28;20255;-76
2021/12/08 05:23:40;;;;;;;29.00;27.03;;;;;;;;;;5092495;28;20659;-76
2021/12/08 05:26:11;;;;;;;27.30;25.70;;;;;;;;;;5092481;28;20285;-77
2021/12/08 05:28:38;;;;;;;31.53;29.30;;;;;;;;;;5092357;28;20623;-76
2021/12/08 05:31:06;;;;;;;27.90;26.00;;;;;;;;;;5091957;28;20609;-76
2021/12/08 05:33:33;;;;;;;27.03;25.40;;;;;;;;;;5092342;28;20193;-76
2021/12/08 05:36:00;;;;;;;23.93;22.53;;;;;;;;;;5092679;28;20240;-77
2021/12/08 05:38:26;;;;;;;27.40;25.70;;;;;;;;;;5092900;28;20229;-75
2021/12/08 05:40:55;;;;;;;25.73;24.23;;;;;;;;;;5092558;28;20363;-78
2021/12/08 05:43:23;;;;;;;26.83;25.07;;;;;;;;;;5092555;28;20194;-75
2021/12/08 05:45:51;;;;;;;26.57;25.00;;;;;;;;;;5092187;28;20280;-76
2021/12/08 05:48:19;;;;;;;25.30;23.90;;;;;;;;;;5092499;28;20628;-77
2021/12/08 05:50:49;;;;;;;23.40;21.97;;;;;;;;;;5092157;28;20206;-77
2021/12/08 05:53:16;;;;;;;28.47;26.77;;;;;;;;;;5092471;28;20267;-76
2021/12/08 05:55:45;;;;;;;29.90;28.00;;;;;;;;;;5092285;28;20194;-76
2021/12/08 05:58:12;;;;;;;28.90;26.87;;;;;;;;;;5092419;28;20293;-76
2021/12/08 06:00:42;;;;;;;26.40;24.23;;;;;;;;;;5092222;28;20730;-76
2021/12/08 06:03:10;;;;;;;25.63;23.50;;;;;;;;;;5092076;28;20229;-75
2021/12/08 06:05:36;;;;;;;29.23;26.97;;;;;;;;;;5092181;28;20243;-76
2021/12/08 06:08:04;;;;;;;28.73;26.67;;;;;;;;;;5092389;28;20197;-75
2021/12/08 06:10:32;;;;;;;30.37;27.83;;;;;;;;;;5092098;28;20262;-76
2021/12/08 06:12:59;;;;;;;26.37;24.40;;;;;;;;;;5092066;28;20202;-75
2021/12/08 06:15:26;;;;;;;23.63;22.43;;;;;;;;;;5092491;28;20230;-75
2021/12/08 06:17:54;;;;;;;25.97;24.33;;;;;;;;;;5092509;28;20196;-75
2021/12/08 06:20:22;;;;;;;23.50;21.53;;;;;;;;;;5091832;28;20229;-75
2021/12/08 06:22:50;;;;;;;22.37;21.27;;;;;;;;;;5092232;28;20589;-75
2021/12/08 06:25:17;;;;;;;20.87;19.70;;;;;;;;;;5092236;28;20232;-77
2021/12/08 06:27:44;;;;;;;21.87;20.70;;;;;;;;;;5091885;28;20613;-75
2021/12/08 06:30:12;;;;;;;21.73;20.63;;;;;;;;;;5091858;28;20259;-75
2021/12/08 06:32:40;;;;;;;24.97;23.30;;;;;;;;;;5092013;28;20198;-75
2021/12/08 06:35:11;;;;;;;24.60;23.20;;;;;;;;;;5091752;28;20739;-75
2021/12/08 06:37:39;;;;;;;26.27;24.40;;;;;;;;;;5092142;28;20186;-75
2021/12/08 06:40:13;;;;;;;23.73;22.40;;;;;;;;;;5092192;28;20229;-75
2021/12/08 06:42:41;;;;;;;22.40;21.30;;;;;;;;;;5095962;28;20198;-74
2021/12/08 06:45:09;;;;;;;26.87;25.13;;;;;;;;;;5095860;28;20259;-75
2021/12/08 06:47:36;;;;;;;29.83;27.27;;;;;;;;;;5095496;28;20189;-75
2021/12/08 06:50:06;;;;;;;22.27;21.07;;;;;;;;;;5095483;28;20758;-74
2021/12/08 06:52:36;;;;;;;25.60;24.20;;;;;;;;;;5095961;28;20212;-75
2021/12/08 06:55:07;;;;;;;27.73;26.03;;;;;;;;;;5095385;28;20194;-75
2021/12/08 06:57:37;;;;;;;27.23;25.53;;;;;;;;;;5095567;28;20206;-74
2021/12/08 07:00:17;;;;;;;26.37;24.97;;;;;;;;;;5095537;28;20225;-75
2021/12/08 07:03:03;;;;;;;29.40;27.47;;;;;;;;;;5095523;28;20186;-75
2021/12/08 07:05:53;;;;;;;28.00;26.40;;;;;;;;;;5095452;28;20307;-75
2021/12/08 07:08:21;;;;;;;26.83;25.07;;;;;;;;;;5095025;28;20235;-74
2021/12/08 07:10:49;;;;;;;26.73;25.23;;;;;;;;;;5095101;28;20216;-74
2021/12/08 07:13:19;;;;;;;32.43;30.43;;;;;;;;;;5095329;28;20233;-75
2021/12/08 07:15:48;;;;;;;27.10;25.60;;;;;;;;;;5095294;28;20222;-74
2021/12/08 07:18:17;;;;;;;27.47;25.57;;;;;;;;;;5095195;28;20194;-74
2021/12/08 07:20:48;;;;;;;30.93;28.77;;;;;;;;;;5094796;28;20719;-74
2021/12/08 07:23:16;;;;;;;36.13;33.53;;;;;;;;;;5094819;28;20233;-75
2021/12/08 07:25:45;;;;;;;33.43;30.93;;;;;;;;;;5095092;28;20197;-74
2021/12/08 07:28:13;;;;;;;32.03;30.03;;;;;;;;;;5094954;28;20602;-74
2021/12/08 07:30:43;;;;;;;37.00;33.90;;;;;;;;;;5094663;28;20233;-75
2021/12/08 07:33:09;;;;;;;32.37;30.37;;;;;;;;;;5094935;28;20194;-74
2021/12/08 07:35:38;;;;;;;33.40;30.77;;;;;;;;;;5094811;28;20728;-75
2021/12/08 07:38:06;;;;;;;31.87;29.23;;;;;;;;;;5094798;28;20255;-74
2021/12/08 07:40:36;;;;;;;28.43;26.73;;;;;;;;;;5094719;28;20231;-74
2021/12/08 07:43:06;;;;;;;32.53;30.00;;;;;;;;;;5094455;28;20284;-76
2021/12/08 07:45:36;;;;;;;28.47;26.47;;;;;;;;;;5094871;28;20222;-74
2021/12/08 07:48:04;;;;;;;27.90;26.10;;;;;;;;;;5094316;28;20240;-74
2021/12/08 07:50:33;;;;;;;29.60;27.70;;;;;;;;;;5094246;28;20646;-74
2021/12/08 07:53:00;;;;;;;30.10;28.27;;;;;;;;;;5093740;28;20280;-74
2021/12/08 07:55:28;;;;;;;30.50;28.60;;;;;;;;;;5094173;28;20200;-75
2021/12/08 07:57:56;;;;;;;29.33;27.63;;;;;;;;;;5094495;28;20281;-74
2021/12/08 08:00:26;;;;;;;28.33;26.13;;;;;;;;;;5094022;28;20279;-74
2021/12/08 08:02:53;;;;;;;25.27;23.77;;;;;;;;;;5094155;28;20190;-74
2021/12/08 08:05:22;;;;;;;31.90;29.50;;;;;;;;;;5093970;28;20627;-75
2021/12/08 08:07:49;;;;;;;26.17;24.57;;;;;;;;;;5094420;28;20194;-76
2021/12/08 08:10:17;;;;;;;31.40;28.97;;;;;;;;;;5093890;28;20729;-74
2021/12/08 08:12:45;;;;;;;28.60;26.97;;;;;;;;;;5094137;28;20651;-74
2021/12/08 08:15:15;;;;;;;33.40;31.13;;;;;;;;;;5093866;28;20661;-75
2021/12/08 08:17:45;;;;;;;28.87;26.80;;;;;;;;;;5094023;28;20200;-74
2021/12/08 08:20:14;;;;;;;32.57;30.57;;;;;;;;;;5093661;28;20751;-74
2021/12/08 08:22:41;;;;;;;31.33;29.43;;;;;;;;;;5094062;28;20255;-75
2021/12/08 08:25:09;;;;;;;31.73;29.83;;;;;;;;;;5093859;28;20217;-74
2021/12/08 08:27:36;;;;;;;27.57;26.03;;;;;;;;;;5093567;28;20748;-74
2021/12/08 08:30:08;;;;;;;30.63;28.43;;;;;;;;;;5093586;28;20269;-75
2021/12/08 08:32:36;;;;;;;36.60;34.17;;;;;;;;;;5093499;28;20240;-75
2021/12/08 08:35:08;;;;;;;31.37;29.43;;;;;;;;;;5093612;28;20198;-74
2021/12/08 08:37:34;;;;;;;31.53;29.70;;;;;;;;;;5093730;28;20600;-75
2021/12/08 08:40:04;;;;;;;33.30;31.30;;;;;;;;;;5093543;28;20643;-75
2021/12/08 08:42:32;;;;;;;33.70;31.60;;;;;;;;;;5093640;28;20203;-75
2021/12/08 08:45:01;;;;;;;31.60;29.60;;;;;;;;;;5093547;28;20194;-74
2021/12/08 08:47:32;;;;;;;30.80;28.67;;;;;;;;;;5093465;28;20277;-74
2021/12/08 08:49:59;;;;;;;46.37;42.93;;;;;;;;;;5093483;28;20188;-75
2021/12/08 08:52:31;;;;;;;46.07;42.93;;;;;;;;;;5093039;28;20285;-75
2021/12/08 08:55:00;;;;;;;34.77;32.00;;;;;;;;;;5093417;28;20186;-75
2021/12/08 08:57:29;;;;;;;42.93;40.23;;;;;;;;;;5093286;28;20190;-74
2021/12/08 08:59:58;;;;;;;34.63;32.43;;;;;;;;;;5092893;28;20225;-75
2021/12/08 09:02:26;;;;;;;32.80;30.90;;;;;;;;;;5093253;28;20202;-75
2021/12/08 09:04:55;;;;;;;30.27;28.43;;;;;;;;;;5093168;28;20266;-74
2021/12/08 09:07:23;;;;;;;28.23;26.53;;;;;;;;;;5093129;28;20190;-76
2021/12/08 09:09:52;;;;;;;32.03;29.77;;;;;;;;;;5092813;28;20205;-74
2021/12/08 09:12:22;;;;;;;33.93;30.87;;;;;;;;;;5093004;28;20222;-74
2021/12/08 09:14:50;;;;;;;30.27;28.27;;;;;;;;;;5093025;28;20618;-76
2021/12/08 09:17:18;;;;;;;25.30;23.80;;;;;;;;;;5093042;28;20226;-75
2021/12/08 09:19:46;;;;;;;33.97;31.37;;;;;;;;;;5092560;28;20280;-74
2021/12/08 09:22:15;;;;;;;30.20;28.40;;;;;;;;;;5092484;28;20226;-75
2021/12/08 09:24:47;;;;;;;28.67;27.07;;;;;;;;;;5092533;28;20198;-75
2021/12/08 09:27:17;;;;;;;32.23;29.80;;;;;;;;;;5092548;28;20190;-76
2021/12/08 09:29:46;;;;;;;33.23;31.03;;;;;;;;;;5092685;28;20308;-76
2021/12/08 09:32:17;;;;;;;32.07;29.83;;;;;;;;;;5092427;28;20762;-74
2021/12/08 09:34:54;;;;;;;30.27;28.57;;;;;;;;;;5092404;28;20186;-75
2021/12/08 09:37:22;;;;;;;33.63;31.47;;;;;;;;;;5092335;28;20652;-74
2021/12/08 09:39:50;;;;;;;31.50;29.40;;;;;;;;;;5092645;28;20277;-74
2021/12/08 09:42:20;;;;;;;30.20;28.50;;;;;;;;;;5092454;28;20312;-74
2021/12/08 09:44:49;;;;;;;25.73;24.13;;;;;;;;;;5092283;28;20229;-75
2021/12/08 09:47:16;;;;;;;26.60;24.87;;;;;;;;;;5092475;28;20197;-74
2021/12/08 09:49:47;;;;;;;30.20;28.40;;;;;;;;;;5092548;28;20570;-74
2021/12/08 09:52:15;;;;;;;29.17;27.47;;;;;;;;;;5092265;28;20198;-76
2021/12/08 09:54:42;;;;;;;33.93;31.23;;;;;;;;;;5092168;28;20194;-75
2021/12/08 09:57:13;;;;;;;29.63;27.83;;;;;;;;;;5092178;28;20190;-75
2021/12/08 09:59:46;;;;;;;28.77;27.07;;;;;;;;;;5092162;28;20228;-75
2021/12/08 10:02:14;;;;;;;30.23;28.20;;;;;;;;;;5092344;28;20305;-75
2021/12/08 10:04:40;;;;;;;28.30;26.60;;;;;;;;;;5092081;28;20651;-76
2021/12/08 10:07:07;;;;;;;29.37;27.43;;;;;;;;;;5092346;28;20286;-79
2021/12/08 10:09:34;;;;;;;28.80;27.00;;;;;;;;;;5092288;28;20197;-79
2021/12/08 10:12:02;;;;;;;29.43;27.40;;;;;;;;;;5092342;28;20314;-77
2021/12/08 10:14:29;;;;;;;31.40;28.97;;;;;;;;;;5091923;28;20194;-77
2021/12/08 10:16:57;;;;;;;29.10;26.83;;;;;;;;;;5096374;28;20201;-77
2021/12/08 10:19:24;;;;;;;25.80;24.20;;;;;;;;;;5096403;28;20204;-76
2021/12/08 10:21:51;;;;;;;31.10;29.10;;;;;;;;;;5096232;28;20229;-76
2021/12/08 10:24:19;;;;;;;31.87;29.77;;;;;;;;;;5096752;28;20285;-78
2021/12/08 10:26:46;;;;;;;32.47;30.43;;;;;;;;;;5095940;28;20194;-75
2021/12/08 10:29:13;;;;;;;32.90;30.80;;;;;;;;;;5096084;28;20251;-75
2021/12/08 10:31:44;;;;;;;33.97;31.50;;;;;;;;;;5095882;28;20564;-77
2021/12/08 10:34:22;;;;;;;34.33;31.43;;;;;;;;;;5095702;28;20193;-80
2021/12/08 10:36:50;;;;;;;30.53;27.97;;;;;;;;;;5096077;28;20189;-77
2021/12/08 10:39:28;;;;;;;30.57;28.47;;;;;;;;;;5095849;28;20200;-79
2021/12/08 10:42:06;;;;;;;35.27;32.47;;;;;;;;;;5096023;28;20256;-78
2021/12/08 10:44:42;;;;;;;28.07;26.57;;;;;;;;;;5096075;28;20268;-77
2021/12/08 10:47:09;;;;;;;34.57;31.73;;;;;;;;;;5095670;28;20682;-77
2021/12/08 10:55:14;;;;;;;30.93;29.03;;;;;;;;;;5095764;28;20181;-76
2021/12/08 10:57:41;;;;;;;32.37;30.50;;;;;;;;;;5095717;28;20281;-77
2021/12/08 11:00:09;;;;;;;32.63;30.50;;;;;;;;;;5095973;28;20255;-78
2021/12/08 11:02:36;;;;;;;31.93;29.93;;;;;;;;;;5095551;28;20261;-76
2021/12/08 11:05:06;;;;;;;31.30;29.40;;;;;;;;;;5095451;28;20194;-78
2021/12/08 11:07:33;;;;;;;30.63;28.80;;;;;;;;;;5095342;28;20284;-76
2021/12/08 11:10:17;;;;;;;33.10;30.63;;;;;;;;;;5095525;28;20276;-77
2021/12/08 11:12:43;;;;;;;34.83;32.60;;;;;;;;;;5095431;28;20196;-77
2021/12/08 11:15:20;;;;;;;29.80;27.70;;;;;;;;;;5095340;28;20236;-76
2021/12/08 11:17:48;;;;;;;34.23;32.00;;;;;;;;;;5095170;28;20276;-76
2021/12/08 11:20:17;;;;;;;34.53;32.13;;;;;;;;;;5095167;28;20285;-78
2021/12/08 11:22:47;;;;;;;31.60;29.20;;;;;;;;;;5095188;28;20261;-78
2021/12/08 11:25:21;;;;;;;29.17;27.57;;;;;;;;;;5095821;28;20216;-78
2021/12/08 11:27:48;;;;;;;30.87;28.97;;;;;;;;;;5093680;28;20189;-77
2021/12/08 11:30:15;;;;;;;32.73;30.33;;;;;;;;;;5094732;28;20233;-80
2021/12/08 11:32:42;;;;;;;33.23;30.47;;;;;;;;;;5095329;28;20236;-79
2021/12/08 11:35:20;;;;;;;31.03;28.93;;;;;;;;;;5095150;28;20656;-82
2021/12/08 11:37:58;;;;;;;28.57;26.60;;;;;;;;;;5094740;28;20189;-82
2021/12/08 11:40:25;;;;;;;28.93;27.10;;;;;;;;;;5094987;28;20182;-80
2021/12/08 11:42:51;;;;;;;31.83;29.67;;;;;;;;;;5094973;28;20320;-78
2021/12/08 11:45:19;;;;;;;34.03;31.57;;;;;;;;;;5094387;28;20233;-80
2021/12/08 11:47:46;;;;;;;32.73;30.47;;;;;;;;;;5094776;28;20220;-79
2021/12/08 11:50:14;;;;;;;33.47;31.10;;;;;;;;;;5094421;28;20277;-81
2021/12/08 11:52:42;;;;;;;33.87;31.10;;;;;;;;;;5094768;28;20288;-81
2021/12/08 11:55:10;;;;;;;30.43;27.90;;;;;;;;;;5094343;28;20194;-83
2021/12/08 11:57:39;;;;;;;33.30;30.93;;;;;;;;;;5094299;28;20236;-81
2021/12/08 12:00:08;;;;;;;34.30;31.53;;;;;;;;;;5094361;28;20284;-80
2021/12/08 12:02:36;;;;;;;30.47;28.40;;;;;;;;;;5094404;28;20236;-81
2021/12/08 12:05:04;;;;;;;32.13;30.23;;;;;;;;;;5094158;28;20197;-80
2021/12/08 12:07:31;;;;;;;29.07;26.93;;;;;;;;;;5094034;28;20233;-80
2021/12/08 12:09:59;;;;;;;26.53;24.93;;;;;;;;;;5094014;28;20200;-79
2021/12/08 12:12:26;;;;;;;32.57;30.47;;;;;;;;;;5094164;28;20675;-78
2021/12/08 12:14:53;;;;;;;33.30;31.33;;;;;;;;;;5094670;28;20284;-78
2021/12/08 12:17:20;;;;;;;33.27;30.73;;;;;;;;;;5094147;28;20282;-77
2021/12/08 12:19:49;;;;;;;32.77;30.53;;;;;;;;;;5093808;28;20729;-77
2021/12/08 12:22:30;;;;;;;32.13;30.23;;;;;;;;;;5093652;28;20243;-77
2021/12/08 12:25:03;;;;;;;30.80;29.10;;;;;;;;;;5091982;28;20698;-77
2021/12/08 12:27:38;;;;;;;28.57;26.97;;;;;;;;;;5093708;28;20648;-78
2021/12/08 12:30:09;;;;;;;28.43;26.83;;;;;;;;;;5093630;28;20286;-79
2021/12/08 12:32:38;;;;;;;31.63;29.83;;;;;;;;;;5093653;28;20190;-78
2021/12/08 12:35:12;;;;;;;34.67;32.77;;;;;;;;;;5093404;28;20664;-78
2021/12/08 12:37:40;;;;;;;33.37;31.47;;;;;;;;;;5093402;28;20284;-78
2021/12/08 12:40:09;;;;;;;34.67;32.67;;;;;;;;;;5092993;28;20240;-79
2021/12/08 12:42:47;;;;;;;34.67;32.73;;;;;;;;;;5093210;28;20795;-78
2021/12/08 12:45:14;;;;;;;34.57;32.33;;;;;;;;;;5093348;28;20185;-78
2021/12/08 12:47:42;;;;;;;36.43;34.33;;;;;;;;;;5093528;28;20229;-78
2021/12/08 12:50:21;;;;;;;35.60;33.50;;;;;;;;;;5093491;28;20281;-78
2021/12/08 12:52:52;;;;;;;36.60;34.10;;;;;;;;;;5093455;28;20251;-78
2021/12/08 12:55:21;;;;;;;36.33;33.93;;;;;;;;;;5093170;28;20627;-78
2021/12/08 12:58:08;;;;;;;48.83;46.00;;;;;;;;;;5093338;28;20205;-78
2021/12/08 13:00:35;;;;;;;40.30;38.10;;;;;;;;;;5093374;28;20198;-78
2021/12/08 13:03:02;;;;;;;43.90;41.40;;;;;;;;;;5093049;28;20229;-79
2021/12/08 13:05:44;;;;;;;41.43;38.70;;;;;;;;;;5093112;28;20663;-79
2021/12/08 13:08:11;;;;;;;38.07;35.90;;;;;;;;;;5093549;28;20190;-79
2021/12/08 13:10:40;;;;;;;38.27;35.77;;;;;;;;;;5092812;28;20190;-77
2021/12/08 13:13:10;;;;;;;34.80;32.70;;;;;;;;;;5092779;28;20209;-78
2021/12/08 13:15:38;;;;;;;32.50;30.60;;;;;;;;;;5093208;28;20277;-76
2021/12/08 13:18:06;;;;;;;33.57;31.53;;;;;;;;;;5093059;28;20194;-78
2021/12/08 13:20:34;;;;;;;35.47;33.13;;;;;;;;;;5093037;28;20225;-79
2021/12/08 13:23:02;;;;;;;35.63;33.53;;;;;;;;;;5092857;28;20267;-76
2021/12/08 13:25:48;;;;;;;37.63;35.20;;;;;;;;;;5092603;28;20194;-76
2021/12/08 13:28:18;;;;;;;37.20;35.00;;;;;;;;;;5092896;28;20314;-76
2021/12/08 13:30:46;;;;;;;36.30;34.03;;;;;;;;;;5092402;28;20265;-77
2021/12/08 13:33:27;;;;;;;33.23;31.23;;;;;;;;;;5092685;28;20204;-78
2021/12/08 13:35:54;;;;;;;36.87;34.67;;;;;;;;;;5092442;28;20244;-77
2021/12/08 13:38:21;;;;;;;37.60;35.40;;;;;;;;;;5092673;28;20201;-76
2021/12/08 13:40:50;;;;;;;34.67;32.57;;;;;;;;;;5092380;28;20224;-75
2021/12/08 13:43:31;;;;;;;35.97;33.87;;;;;;;;;;5092175;28;20324;-74
2021/12/08 13:45:58;;;;;;;37.50;35.30;;;;;;;;;;5092631;28;20182;-75
2021/12/08 13:48:25;;;;;;;36.33;33.93;;;;;;;;;;5092238;28;20280;-76
2021/12/08 13:50:52;;;;;;;34.20;32.20;;;;;;;;;;5091622;28;20285;-75
2021/12/08 13:53:18;;;;;;;32.03;30.23;;;;;;;;;;5092571;28;20285;-75
2021/12/08 13:55:49;;;;;;;31.37;29.57;;;;;;;;;;5092516;28;20221;-75
2021/12/08 13:58:18;;;;;;;29.77;28.17;;;;;;;;;;5092119;28;20229;-75
2021/12/08 14:00:46;;;;;;;34.17;32.17;;;;;;;;;;5092930;28;20285;-76
2021/12/08 14:03:15;;;;;;;33.40;31.50;;;;;;;;;;5092030;28;20717;-75
2021/12/08 14:05:45;;;;;;;30.70;28.80;;;;;;;;;;5092346;28;20274;-75
2021/12/08 14:08:15;;;;;;;29.60;27.70;;;;;;;;;;5092022;28;20284;-75
2021/12/08 14:10:43;;;;;;;32.43;30.40;;;;;;;;;;5092217;28;20643;-74
2021/12/08 14:13:11;;;;;;;29.63;28.03;;;;;;;;;;5092171;28;20198;-76
2021/12/08 14:15:43;;;;;;;28.87;26.97;;;;;;;;;;5092473;28;20270;-75
2021/12/08 14:18:14;;;;;;;27.70;26.20;;;;;;;;;;5091994;28;20218;-74
2021/12/08 14:20:41;;;;;;;26.80;25.40;;;;;;;;;;5092213;28;20635;-75
2021/12/08 14:23:08;;;;;;;27.23;25.63;;;;;;;;;;5091874;28;20604;-75
2021/12/08 14:25:37;;;;;;;26.77;25.30;;;;;;;;;;5091934;28;20267;-75
2021/12/08 14:28:18;;;;;;;27.97;26.27;;;;;;;;;;5091806;28;20229;-75
2021/12/08 14:30:47;;;;;;;25.20;23.73;;;;;;;;;;5091720;28;20321;-75
2021/12/08 14:33:14;;;;;;;25.00;23.50;;;;;;;;;;5092010;28;20237;-75
2021/12/08 14:35:40;;;;;;;24.47;23.07;;;;;;;;;;5092100;28;20281;-75
2021/12/08 14:38:07;;;;;;;23.80;22.40;;;;;;;;;;5091719;28;20581;-75
2021/12/08 14:40:36;;;;;;;24.87;23.47;;;;;;;;;;5092359;28;20194;-74
2021/12/08 14:43:03;;;;;;;24.27;22.77;;;;;;;;;;5091912;28;20264;-74
2021/12/08 14:45:32;;;;;;;22.47;21.27;;;;;;;;;;5092062;28;20190;-74
2021/12/08 14:48:00;;;;;;;24.10;22.80;;;;;;;;;;5091707;28;20194;-74
2021/12/08 14:50:26;;;;;;;32.53;30.03;;;;;;;;;;5091814;28;20284;-74
2021/12/08 14:52:53;;;;;;;29.30;27.70;;;;;;;;;;5091946;28;20247;-74
2021/12/08 14:55:21;;;;;;;29.20;27.53;;;;;;;;;;5091588;28;20698;-74
2021/12/08 14:57:51;;;;;;;29.70;28.10;;;;;;;;;;5091554;28;20208;-73
2021/12/08 15:00:20;;;;;;;30.43;28.80;;;;;;;;;;5091862;28;20579;-73
2021/12/08 15:02:48;;;;;;;32.80;30.67;;;;;;;;;;5094262;28;20265;-73